Time;durP1;ratioP1;P1;durP2;ratioP2;P2;SDS_P1;SDS_P2;PMS_P1;PMS_P2;Temp;Humidity;BMP_temperature;BMP_pressure;BME280_temperature;BME280_humidity;BME280_pressure;Samples;Min_cycle;Max_cycle;Signal;HPM_P1;HPM_P2
2023/12/08 21:46:46;;;;;;;5.83;1.70;;;23.10;57.00;;;;;;5059864;28;20451;-85
2023/12/08 21:49:13;;;;;;;4.90;1.80;;;23.10;56.90;;;;;;5040919;28;20536;-85
2023/12/08 21:51:40;;;;;;;2.27;1.90;;;23.10;57.20;;;;;;5050622;28;20447;-85
2023/12/08 21:54:06;;;;;;;2.90;2.37;;;23.20;57.30;;;;;;5054025;28;20947;-86
2023/12/08 21:56:33;;;;;;;2.10;1.67;;;23.20;57.30;;;;;;5054005;28;20488;-87
2023/12/08 21:59:00;;;;;;;5.03;2.00;;;23.20;57.40;;;;;;5053794;28;20444;-86
2023/12/08 22:01:27;;;;;;;1.90;1.70;;;23.20;57.40;;;;;;5054123;28;20440;-86
2023/12/08 22:03:56;;;;;;;2.20;2.00;;;23.20;57.30;;;;;;5053881;28;20448;-86
2023/12/08 22:06:23;;;;;;;1.57;1.47;;;23.30;57.40;;;;;;5053817;28;20839;-86
2023/12/08 22:08:50;;;;;;;3.47;2.27;;;23.20;57.40;;;;;;5053926;28;20476;-86
2023/12/08 22:11:17;;;;;;;2.33;1.80;;;23.30;57.50;;;;;;5054125;28;20454;-86
2023/12/08 22:13:45;;;;;;;1.70;1.60;;;23.30;57.60;;;;;;5053857;28;20494;-86
2023/12/08 22:16:12;;;;;;;1.77;1.63;;;23.30;57.50;;;;;;5054012;28;20492;-86
2023/12/08 22:18:40;;;;;;;2.30;1.80;;;23.20;57.50;;;;;;5053901;28;20441;-86
2023/12/08 22:21:09;;;;;;;4.17;2.30;;;23.30;57.60;;;;;;5053454;28;20437;-86
2023/12/08 22:23:36;;;;;;;2.60;1.33;;;23.20;57.50;;;;;;5053474;28;20473;-86
2023/12/08 22:26:04;;;;;;;2.30;2.10;;;23.30;57.60;;;;;;5053570;28;20441;-87
2023/12/08 22:28:30;;;;;;;1.60;1.50;;;23.20;57.60;;;;;;5053505;28;20437;-86
2023/12/08 22:30:57;;;;;;;1.67;1.57;;;23.30;57.70;;;;;;5053680;28;20437;-86
2023/12/08 22:33:24;;;;;;;1.93;1.67;;;23.30;57.70;;;;;;5053619;28;20448;-90
2023/12/08 22:35:51;;;;;;;3.30;1.93;;;23.20;57.60;;;;;;5053209;28;20538;-88
2023/12/08 22:38:19;;;;;;;2.20;2.00;;;23.30;57.50;;;;;;5053354;28;20441;-90
2023/12/08 22:40:46;;;;;;;2.63;1.70;;;23.20;57.60;;;;;;5053104;28;20471;-90
2023/12/08 22:43:13;;;;;;;1.87;1.67;;;23.20;57.70;;;;;;5053153;28;20944;-88
2023/12/08 22:45:40;;;;;;;9.00;1.87;;;23.10;57.60;;;;;;5053595;28;20797;-89
2023/12/08 22:48:06;;;;;;;2.27;1.43;;;23.10;57.60;;;;;;5065572;28;20530;-89
2023/12/08 22:50:33;;;;;;;2.00;1.90;;;23.10;57.70;;;;;;5073224;28;20958;-90
2023/12/08 22:52:59;;;;;;;1.50;1.40;;;23.10;57.60;;;;;;5073621;28;20463;-89
2023/12/08 22:55:27;;;;;;;2.00;1.50;;;23.10;57.70;;;;;;5075690;28;20472;-88
2023/12/08 22:57:54;;;;;;;2.37;1.80;;;23.10;58.30;;;;;;5077082;28;20190;-88
2023/12/08 23:00:23;;;;;;;1.67;1.57;;;23.00;57.60;;;;;;5076990;28;20444;-88
2023/12/08 23:02:51;;;;;;;2.27;1.40;;;23.10;57.60;;;;;;5077510;28;20440;-90
2023/12/08 23:05:18;;;;;;;2.50;1.63;;;23.00;57.60;;;;;;5077453;28;20531;-89
2023/12/08 23:07:45;;;;;;;4.30;2.47;;;23.00;57.60;;;;;;5077450;28;20436;-90
2023/12/08 23:10:12;;;;;;;2.33;1.60;;;23.00;57.60;;;;;;5077021;28;20466;-88
2023/12/08 23:12:40;;;;;;;2.00;1.80;;;23.10;57.70;;;;;;5077284;28;20432;-89
2023/12/08 23:15:08;;;;;;;2.20;2.00;;;23.00;57.60;;;;;;5077325;28;20445;-88
2023/12/08 23:17:35;;;;;;;2.90;1.57;;;22.90;57.60;;;;;;5077135;28;20479;-90
2023/12/08 23:20:02;;;;;;;2.17;1.43;;;22.90;57.50;;;;;;5078201;28;20436;-88
2023/12/08 23:22:29;;;;;;;2.93;1.53;;;22.90;57.60;;;;;;5100936;28;20461;-87
2023/12/08 23:24:56;;;;;;;1.83;1.60;;;22.90;57.60;;;;;;5078758;28;20528;-89
2023/12/08 23:27:23;;;;;;;2.23;1.60;;;23.00;57.70;;;;;;5077105;28;20440;-87
2023/12/08 23:29:51;;;;;;;2.53;1.67;;;22.90;57.70;;;;;;5077030;28;20451;-88
2023/12/08 23:32:18;;;;;;;2.80;1.87;;;22.90;57.60;;;;;;5076644;28;20428;-88
2023/12/08 23:34:45;;;;;;;3.60;1.60;;;22.80;57.60;;;;;;5076596;28;20455;-88
2023/12/08 23:37:11;;;;;;;1.60;1.47;;;22.90;57.70;;;;;;5076033;28;20490;-89
2023/12/08 23:39:38;;;;;;;2.50;1.93;;;22.80;57.60;;;;;;5055774;28;20461;-88
2023/12/08 23:42:05;;;;;;;2.10;1.63;;;22.80;57.60;;;;;;5054697;28;20548;-88
2023/12/08 23:44:32;;;;;;;1.60;1.50;;;22.80;57.70;;;;;;5055394;28;20452;-88
2023/12/08 23:47:00;;;;;;;1.97;1.40;;;22.80;57.60;;;;;;5054995;28;20500;-88
2023/12/08 23:49:27;;;;;;;1.60;1.50;;;22.80;57.60;;;;;;5055477;28;20434;-88
2023/12/08 23:51:54;;;;;;;1.77;1.67;;;22.80;57.60;;;;;;5055360;28;20456;-88
2023/12/08 23:54:21;;;;;;;1.80;1.70;;;22.80;57.70;;;;;;5055257;28;20796;-88
2023/12/08 23:56:48;;;;;;;2.77;1.80;;;22.80;57.60;;;;;;5055576;28;20836;-90
2023/12/08 23:59:15;;;;;;;1.70;1.60;;;22.70;57.60;;;;;;5056022;28;20473;-90
